Colorado Springs, CO (80902)

1:38 PM MDT on July 05, 2015 (GMT -0600)
Highway 115 - Red Rock Valley | | Change Station
CLOSE
Current Station
Personal Weather Station
Location: Colorado Springs, CO
Elevation: 6532 ft
Nearby Weather Stations

Elev 6532 ft 38.68 °N, 104.86 °W | Updated 2 minutes ago

Partly Cloudy
Partly Cloudy
84.0 °F
Feels Like 83 °F
N
3.0
Wind Variable Wind from SW
Gusts 5.0 mph

Today
High -- | Low -- °F
--% Chance of Precip.
Yesterday
High -- | Low -- °F
Precip. -- in
5:40 AM 8:26 PM
Waning Gibbous, 82% visible
Pressure 29.84 in
Visibility 10.0 miles
Clouds Few 11000 ft
Scattered Clouds 20000 ft
Heat Index 83 °F
Dew Point 54 °F
Humidity 36%
Rainfall 0.00 in
Snow Depth Not available.
UV 10 out of 12
Pollen 6.40 out of 12
Air Quality Not available.
Flu Activity Not available.
METAR KFCS 051858Z AUTO 09003KT 10SM FEW110 SCT200 28/11 A3003 RMK AO2 SLP105 T02830107 $

More Conditions Fewer Conditions

Pressure 29.84 in
Visibility 10.0 miles
Clouds Few 11000 ft
Scattered Clouds 20000 ft
Heat Index 83 °F
Dew Point 54 °F
Humidity 36%
Rainfall 0.00 in
Snow Depth Not available.
UV 10 out of 12
Pollen 6.40 out of 12
Air Quality Not available.
Flu Activity Not available.
METAR KFCS 051858Z AUTO 09003KT 10SM FEW110 SCT200 28/11 A3003 RMK AO2 SLP105 T02830107 $

More Conditions Fewer Conditions

10-Day Weather Forecast

×

Almanac

Astronomy

Jul. 05, 2015 Rise Set
Actual Time
Civil Twilight
Nautical Twilight
Astronomical Twilight
Moon
Length of Visible Light
Length of Day
Tomorrow will be .
, % of the Moon is Illuminated

Today's Extremes

State Highs State Lows

Community

WunderPhotos

Upload Photos

1,835,358 photos uploaded!

WunderBlogs® & News

Nearby

Air Quality

  Air Quality AQ Index Pollutant
Not available.

Snow Depth

Station Depth Elevation

Earthquake Activity

City Distance Mag. Time & Date
Minimum magnitude displayed is 2.5.

Coastal Water Temperatures

Place Temperature

Stations

Nearby Weather Stations

Station Location Temp. Windchill Dew Point Humidity Wind Precip. Elev Updated Type